sensor_id;sensor_type;location;lat;lon;timestamp;P1;durP1;ratioP1;P2;durP2;ratioP2
79706;SDS011;69200;53.612;-2.416;2023-12-07T00:02:11;11.55;;;4.65;;
79706;SDS011;69200;53.612;-2.416;2023-12-07T00:04:37;15.98;;;5.43;;
79706;SDS011;69200;53.612;-2.416;2023-12-07T00:07:02;15.27;;;7.90;;
79706;SDS011;69200;53.612;-2.416;2023-12-07T00:09:28;9.32;;;3.95;;
79706;SDS011;69200;53.612;-2.416;2023-12-07T00:11:53;9.82;;;4.43;;
79706;SDS011;69200;53.612;-2.416;2023-12-07T00:14:19;14.88;;;5.88;;
79706;SDS011;69200;53.612;-2.416;2023-12-07T00:16:44;10.80;;;4.40;;
79706;SDS011;69200;53.612;-2.416;2023-12-07T00:19:09;15.43;;;6.68;;
79706;SDS011;69200;53.612;-2.416;2023-12-07T00:21:35;12.70;;;5.88;;
79706;SDS011;69200;53.612;-2.416;2023-12-07T00:24:00;12.38;;;5.60;;
79706;SDS011;69200;53.612;-2.416;2023-12-07T00:26:26;10.85;;;4.75;;
79706;SDS011;69200;53.612;-2.416;2023-12-07T00:28:51;13.00;;;5.38;;
79706;SDS011;69200;53.612;-2.416;2023-12-07T00:31:17;11.68;;;5.68;;
79706;SDS011;69200;53.612;-2.416;2023-12-07T00:33:42;15.25;;;6.00;;
79706;SDS011;69200;53.612;-2.416;2023-12-07T00:36:07;13.02;;;4.60;;
79706;SDS011;69200;53.612;-2.416;2023-12-07T00:38:33;7.50;;;3.42;;
79706;SDS011;69200;53.612;-2.416;2023-12-07T00:40:59;12.98;;;5.57;;
79706;SDS011;69200;53.612;-2.416;2023-12-07T00:43:24;13.13;;;6.68;;
79706;SDS011;69200;53.612;-2.416;2023-12-07T00:45:50;10.27;;;4.55;;
79706;SDS011;69200;53.612;-2.416;2023-12-07T00:48:16;16.08;;;5.88;;
79706;SDS011;69200;53.612;-2.416;2023-12-07T00:50:41;9.68;;;4.07;;
79706;SDS011;69200;53.612;-2.416;2023-12-07T00:53:06;12.68;;;5.40;;
79706;SDS011;69200;53.612;-2.416;2023-12-07T00:55:32;13.88;;;5.18;;
79706;SDS011;69200;53.612;-2.416;2023-12-07T00:57:57;14.65;;;5.70;;
79706;SDS011;69200;53.612;-2.416;2023-12-07T01:00:25;17.17;;;6.80;;
79706;SDS011;69200;53.612;-2.416;2023-12-07T01:02:50;13.80;;;5.18;;
79706;SDS011;69200;53.612;-2.416;2023-12-07T01:05:16;13.68;;;5.88;;
79706;SDS011;69200;53.612;-2.416;2023-12-07T01:07:41;13.63;;;5.32;;
79706;SDS011;69200;53.612;-2.416;2023-12-07T01:10:07;15.82;;;6.88;;
79706;SDS011;69200;53.612;-2.416;2023-12-07T01:12:32;12.07;;;4.68;;
79706;SDS011;69200;53.612;-2.416;2023-12-07T01:14:58;9.55;;;4.53;;
79706;SDS011;69200;53.612;-2.416;2023-12-07T01:17:23;11.43;;;3.90;;
79706;SDS011;69200;53.612;-2.416;2023-12-07T01:19:49;13.27;;;6.55;;
79706;SDS011;69200;53.612;-2.416;2023-12-07T01:22:14;10.85;;;5.40;;
79706;SDS011;69200;53.612;-2.416;2023-12-07T01:24:39;10.38;;;4.68;;
79706;SDS011;69200;53.612;-2.416;2023-12-07T01:27:05;15.73;;;5.25;;
79706;SDS011;69200;53.612;-2.416;2023-12-07T01:29:30;10.27;;;5.07;;
79706;SDS011;69200;53.612;-2.416;2023-12-07T01:31:55;12.10;;;4.43;;
79706;SDS011;69200;53.612;-2.416;2023-12-07T01:34:21;7.47;;;3.20;;
79706;SDS011;69200;53.612;-2.416;2023-12-07T01:36:46;10.05;;;4.50;;
79706;SDS011;69200;53.612;-2.416;2023-12-07T01:39:11;14.23;;;5.70;;
79706;SDS011;69200;53.612;-2.416;2023-12-07T01:41:38;14.55;;;4.10;;
79706;SDS011;69200;53.612;-2.416;2023-12-07T01:44:04;9.00;;;4.22;;
79706;SDS011;69200;53.612;-2.416;2023-12-07T01:46:29;10.75;;;4.05;;
79706;SDS011;69200;53.612;-2.416;2023-12-07T01:48:55;16.55;;;6.65;;
79706;SDS011;69200;53.612;-2.416;2023-12-07T01:51:21;9.27;;;4.47;;
79706;SDS011;69200;53.612;-2.416;2023-12-07T01:53:47;12.00;;;5.38;;
79706;SDS011;69200;53.612;-2.416;2023-12-07T01:56:13;13.05;;;4.82;;
79706;SDS011;69200;53.612;-2.416;2023-12-07T01:58:39;13.85;;;5.93;;
79706;SDS011;69200;53.612;-2.416;2023-12-07T02:01:04;13.70;;;5.53;;
79706;SDS011;69200;53.612;-2.416;2023-12-07T02:03:31;9.07;;;4.10;;
79706;SDS011;69200;53.612;-2.416;2023-12-07T02:05:57;12.27;;;5.18;;
79706;SDS011;69200;53.612;-2.416;2023-12-07T02:08:23;16.45;;;6.45;;
79706;SDS011;69200;53.612;-2.416;2023-12-07T02:10:49;9.15;;;3.42;;
79706;SDS011;69200;53.612;-2.416;2023-12-07T02:13:14;13.52;;;3.15;;
79706;SDS011;69200;53.612;-2.416;2023-12-07T02:15:40;11.05;;;4.85;;
79706;SDS011;69200;53.612;-2.416;2023-12-07T02:18:25;11.90;;;3.50;;
79706;SDS011;69200;53.612;-2.416;2023-12-07T02:21:13;9.93;;;5.10;;
79706;SDS011;69200;53.612;-2.416;2023-12-07T02:23:46;13.02;;;4.20;;
79706;SDS011;69200;53.612;-2.416;2023-12-07T02:26:14;8.73;;;3.17;;
79706;SDS011;69200;53.612;-2.416;2023-12-07T02:28:44;8.98;;;4.10;;
79706;SDS011;69200;53.612;-2.416;2023-12-07T02:31:10;12.57;;;4.70;;
79706;SDS011;69200;53.612;-2.416;2023-12-07T02:33:35;6.55;;;2.67;;
79706;SDS011;69200;53.612;-2.416;2023-12-07T02:36:00;9.45;;;3.25;;
79706;SDS011;69200;53.612;-2.416;2023-12-07T02:38:26;11.95;;;4.43;;
79706;SDS011;69200;53.612;-2.416;2023-12-07T02:40:53;15.30;;;4.85;;
79706;SDS011;69200;53.612;-2.416;2023-12-07T02:43:20;9.38;;;3.38;;
79706;SDS011;69200;53.612;-2.416;2023-12-07T02:45:46;12.80;;;4.07;;
79706;SDS011;69200;53.612;-2.416;2023-12-07T02:48:12;12.73;;;5.05;;
79706;SDS011;69200;53.612;-2.416;2023-12-07T02:50:38;9.57;;;4.40;;
79706;SDS011;69200;53.612;-2.416;2023-12-07T02:53:03;15.38;;;7.22;;
79706;SDS011;69200;53.612;-2.416;2023-12-07T02:55:28;10.25;;;3.60;;
79706;SDS011;69200;53.612;-2.416;2023-12-07T02:57:54;13.93;;;6.07;;
79706;SDS011;69200;53.612;-2.416;2023-12-07T03:00:19;11.95;;;5.38;;
79706;SDS011;69200;53.612;-2.416;2023-12-07T03:02:46;10.55;;;4.80;;
79706;SDS011;69200;53.612;-2.416;2023-12-07T03:05:12;7.30;;;3.55;;
79706;SDS011;69200;53.612;-2.416;2023-12-07T03:07:38;6.90;;;3.83;;
79706;SDS011;69200;53.612;-2.416;2023-12-07T03:10:04;11.07;;;4.85;;
79706;SDS011;69200;53.612;-2.416;2023-12-07T03:12:30;12.52;;;4.32;;
79706;SDS011;69200;53.612;-2.416;2023-12-07T03:14:55;11.85;;;4.82;;
79706;SDS011;69200;53.612;-2.416;2023-12-07T03:17:21;8.48;;;3.20;;
79706;SDS011;69200;53.612;-2.416;2023-12-07T03:19:46;13.35;;;5.90;;
79706;SDS011;69200;53.612;-2.416;2023-12-07T03:22:11;7.40;;;3.45;;
79706;SDS011;69200;53.612;-2.416;2023-12-07T03:24:38;13.27;;;5.13;;
79706;SDS011;69200;53.612;-2.416;2023-12-07T03:27:05;11.23;;;5.03;;
79706;SDS011;69200;53.612;-2.416;2023-12-07T03:29:31;11.85;;;4.55;;
79706;SDS011;69200;53.612;-2.416;2023-12-07T03:31:57;17.38;;;6.63;;
79706;SDS011;69200;53.612;-2.416;2023-12-07T03:34:23;10.90;;;3.75;;
79706;SDS011;69200;53.612;-2.416;2023-12-07T03:36:48;11.50;;;5.18;;
79706;SDS011;69200;53.612;-2.416;2023-12-07T03:39:14;13.50;;;5.13;;
79706;SDS011;69200;53.612;-2.416;2023-12-07T03:41:40;13.52;;;4.97;;
79706;SDS011;69200;53.612;-2.416;2023-12-07T03:44:06;11.57;;;4.95;;
79706;SDS011;69200;53.612;-2.416;2023-12-07T03:46:32;15.60;;;5.45;;
79706;SDS011;69200;53.612;-2.416;2023-12-07T03:48:57;10.75;;;4.25;;
79706;SDS011;69200;53.612;-2.416;2023-12-07T03:51:22;12.05;;;4.43;;
79706;SDS011;69200;53.612;-2.416;2023-12-07T03:53:48;11.23;;;5.47;;
79706;SDS011;69200;53.612;-2.416;2023-12-07T03:56:26;14.57;;;6.43;;
79706;SDS011;69200;53.612;-2.416;2023-12-07T03:58:53;9.48;;;4.25;;
79706;SDS011;69200;53.612;-2.416;2023-12-07T04:01:21;13.57;;;4.90;;
79706;SDS011;69200;53.612;-2.416;2023-12-07T04:03:48;12.82;;;4.93;;
79706;SDS011;69200;53.612;-2.416;2023-12-07T04:06:14;15.13;;;6.45;;
79706;SDS011;69200;53.612;-2.416;2023-12-07T04:08:39;10.38;;;5.22;;
79706;SDS011;69200;53.612;-2.416;2023-12-07T04:11:05;10.13;;;3.90;;
79706;SDS011;69200;53.612;-2.416;2023-12-07T04:13:30;11.48;;;5.20;;
79706;SDS011;69200;53.612;-2.416;2023-12-07T04:15:56;12.57;;;4.80;;
79706;SDS011;69200;53.612;-2.416;2023-12-07T04:18:21;7.82;;;3.33;;
79706;SDS011;69200;53.612;-2.416;2023-12-07T04:20:46;11.45;;;4.35;;
79706;SDS011;69200;53.612;-2.416;2023-12-07T04:23:12;19.08;;;5.78;;
79706;SDS011;69200;53.612;-2.416;2023-12-07T04:25:37;12.57;;;5.13;;
79706;SDS011;69200;53.612;-2.416;2023-12-07T04:28:02;7.00;;;3.47;;
79706;SDS011;69200;53.612;-2.416;2023-12-07T04:30:28;10.88;;;3.70;;
79706;SDS011;69200;53.612;-2.416;2023-12-07T04:32:53;11.35;;;4.90;;
79706;SDS011;69200;53.612;-2.416;2023-12-07T04:35:18;8.65;;;4.68;;
79706;SDS011;69200;53.612;-2.416;2023-12-07T04:37:44;12.15;;;4.28;;
79706;SDS011;69200;53.612;-2.416;2023-12-07T04:40:09;8.15;;;3.20;;
79706;SDS011;69200;53.612;-2.416;2023-12-07T04:42:35;9.25;;;3.97;;
79706;SDS011;69200;53.612;-2.416;2023-12-07T04:45:01;11.43;;;4.15;;
79706;SDS011;69200;53.612;-2.416;2023-12-07T04:47:26;11.85;;;3.47;;
79706;SDS011;69200;53.612;-2.416;2023-12-07T04:49:52;12.60;;;4.57;;
79706;SDS011;69200;53.612;-2.416;2023-12-07T04:52:17;9.07;;;3.85;;
79706;SDS011;69200;53.612;-2.416;2023-12-07T04:54:44;9.43;;;4.07;;
79706;SDS011;69200;53.612;-2.416;2023-12-07T04:57:09;7.28;;;3.33;;
79706;SDS011;69200;53.612;-2.416;2023-12-07T04:59:35;6.88;;;3.00;;
79706;SDS011;69200;53.612;-2.416;2023-12-07T05:02:00;6.80;;;2.95;;
79706;SDS011;69200;53.612;-2.416;2023-12-07T05:04:27;6.32;;;3.40;;
79706;SDS011;69200;53.612;-2.416;2023-12-07T05:06:52;5.32;;;2.33;;
79706;SDS011;69200;53.612;-2.416;2023-12-07T05:09:17;8.90;;;3.92;;
79706;SDS011;69200;53.612;-2.416;2023-12-07T05:11:43;12.40;;;4.55;;
79706;SDS011;69200;53.612;-2.416;2023-12-07T05:14:10;11.15;;;4.80;;
79706;SDS011;69200;53.612;-2.416;2023-12-07T05:16:36;9.43;;;4.00;;
79706;SDS011;69200;53.612;-2.416;2023-12-07T05:19:01;14.50;;;6.40;;
79706;SDS011;69200;53.612;-2.416;2023-12-07T05:21:27;4.93;;;2.47;;
79706;SDS011;69200;53.612;-2.416;2023-12-07T05:23:53;12.10;;;4.78;;
79706;SDS011;69200;53.612;-2.416;2023-12-07T05:26:18;8.85;;;4.15;;
79706;SDS011;69200;53.612;-2.416;2023-12-07T05:28:43;14.38;;;3.97;;
79706;SDS011;69200;53.612;-2.416;2023-12-07T05:31:15;13.18;;;6.88;;
79706;SDS011;69200;53.612;-2.416;2023-12-07T05:33:43;10.07;;;4.72;;
79706;SDS011;69200;53.612;-2.416;2023-12-07T05:36:09;15.25;;;7.07;;
79706;SDS011;69200;53.612;-2.416;2023-12-07T05:38:34;9.52;;;4.18;;
79706;SDS011;69200;53.612;-2.416;2023-12-07T05:41:00;15.20;;;5.10;;
79706;SDS011;69200;53.612;-2.416;2023-12-07T05:43:25;9.02;;;3.65;;
79706;SDS011;69200;53.612;-2.416;2023-12-07T05:45:50;15.82;;;6.72;;
79706;SDS011;69200;53.612;-2.416;2023-12-07T05:48:16;11.45;;;6.03;;
79706;SDS011;69200;53.612;-2.416;2023-12-07T05:50:41;9.90;;;4.75;;
79706;SDS011;69200;53.612;-2.416;2023-12-07T05:53:07;13.25;;;6.10;;
79706;SDS011;69200;53.612;-2.416;2023-12-07T05:55:34;9.95;;;5.20;;
79706;SDS011;69200;53.612;-2.416;2023-12-07T05:57:59;13.45;;;4.88;;
79706;SDS011;69200;53.612;-2.416;2023-12-07T06:00:25;13.75;;;4.07;;
79706;SDS011;69200;53.612;-2.416;2023-12-07T06:02:51;12.73;;;4.05;;
79706;SDS011;69200;53.612;-2.416;2023-12-07T06:05:16;9.95;;;5.13;;
79706;SDS011;69200;53.612;-2.416;2023-12-07T06:07:42;9.48;;;3.17;;
79706;SDS011;69200;53.612;-2.416;2023-12-07T06:10:08;9.27;;;3.30;;
79706;SDS011;69200;53.612;-2.416;2023-12-07T06:12:34;8.27;;;3.40;;
79706;SDS011;69200;53.612;-2.416;2023-12-07T06:14:59;9.63;;;3.65;;
79706;SDS011;69200;53.612;-2.416;2023-12-07T06:17:24;7.03;;;3.47;;
79706;SDS011;69200;53.612;-2.416;2023-12-07T06:19:50;10.25;;;4.65;;
79706;SDS011;69200;53.612;-2.416;2023-12-07T06:22:15;12.00;;;4.75;;
79706;SDS011;69200;53.612;-2.416;2023-12-07T06:24:41;8.45;;;3.80;;
79706;SDS011;69200;53.612;-2.416;2023-12-07T06:27:06;10.98;;;4.15;;
79706;SDS011;69200;53.612;-2.416;2023-12-07T06:29:31;5.97;;;3.08;;
79706;SDS011;69200;53.612;-2.416;2023-12-07T06:31:57;12.00;;;5.43;;
79706;SDS011;69200;53.612;-2.416;2023-12-07T06:34:22;10.05;;;3.58;;
79706;SDS011;69200;53.612;-2.416;2023-12-07T06:36:47;9.40;;;3.50;;
79706;SDS011;69200;53.612;-2.416;2023-12-07T06:39:13;10.88;;;4.32;;
79706;SDS011;69200;53.612;-2.416;2023-12-07T06:41:39;13.43;;;4.00;;
79706;SDS011;69200;53.612;-2.416;2023-12-07T06:44:05;10.73;;;4.45;;
79706;SDS011;69200;53.612;-2.416;2023-12-07T06:46:31;9.35;;;2.95;;
79706;SDS011;69200;53.612;-2.416;2023-12-07T06:48:56;7.20;;;3.03;;
79706;SDS011;69200;53.612;-2.416;2023-12-07T06:51:22;10.85;;;5.20;;
79706;SDS011;69200;53.612;-2.416;2023-12-07T06:53:47;8.20;;;3.85;;
79706;SDS011;69200;53.612;-2.416;2023-12-07T06:56:13;12.60;;;3.97;;
79706;SDS011;69200;53.612;-2.416;2023-12-07T06:58:39;10.00;;;4.43;;
79706;SDS011;69200;53.612;-2.416;2023-12-07T07:01:05;6.25;;;3.10;;
79706;SDS011;69200;53.612;-2.416;2023-12-07T07:03:30;7.20;;;3.25;;
79706;SDS011;69200;53.612;-2.416;2023-12-07T07:05:56;7.55;;;3.60;;
79706;SDS011;69200;53.612;-2.416;2023-12-07T07:08:21;13.50;;;4.85;;
79706;SDS011;69200;53.612;-2.416;2023-12-07T07:10:47;12.52;;;4.97;;
79706;SDS011;69200;53.612;-2.416;2023-12-07T07:13:12;8.50;;;3.88;;
79706;SDS011;69200;53.612;-2.416;2023-12-07T07:15:41;11.07;;;4.10;;
79706;SDS011;69200;53.612;-2.416;2023-12-07T07:18:08;9.40;;;4.05;;
79706;SDS011;69200;53.612;-2.416;2023-12-07T07:20:34;8.27;;;3.33;;
79706;SDS011;69200;53.612;-2.416;2023-12-07T07:22:59;6.43;;;2.92;;
79706;SDS011;69200;53.612;-2.416;2023-12-07T07:25:24;6.18;;;1.88;;
79706;SDS011;69200;53.612;-2.416;2023-12-07T07:27:50;8.98;;;4.15;;
79706;SDS011;69200;53.612;-2.416;2023-12-07T07:30:15;10.35;;;3.63;;
79706;SDS011;69200;53.612;-2.416;2023-12-07T07:32:41;9.90;;;3.22;;
79706;SDS011;69200;53.612;-2.416;2023-12-07T07:35:06;6.18;;;2.88;;
79706;SDS011;69200;53.612;-2.416;2023-12-07T07:37:33;10.27;;;4.05;;
79706;SDS011;69200;53.612;-2.416;2023-12-07T07:39:58;6.60;;;2.83;;
79706;SDS011;69200;53.612;-2.416;2023-12-07T07:42:25;4.97;;;2.42;;
79706;SDS011;69200;53.612;-2.416;2023-12-07T07:44:50;6.53;;;2.65;;
79706;SDS011;69200;53.612;-2.416;2023-12-07T07:47:15;8.43;;;4.25;;
79706;SDS011;69200;53.612;-2.416;2023-12-07T07:49:42;7.28;;;3.38;;
79706;SDS011;69200;53.612;-2.416;2023-12-07T07:52:07;5.47;;;2.22;;
79706;SDS011;69200;53.612;-2.416;2023-12-07T07:54:32;8.18;;;3.17;;
79706;SDS011;69200;53.612;-2.416;2023-12-07T07:56:58;4.10;;;1.83;;
79706;SDS011;69200;53.612;-2.416;2023-12-07T07:59:23;7.38;;;3.28;;
79706;SDS011;69200;53.612;-2.416;2023-12-07T08:01:48;8.02;;;3.60;;
79706;SDS011;69200;53.612;-2.416;2023-12-07T08:04:15;5.05;;;1.77;;
79706;SDS011;69200;53.612;-2.416;2023-12-07T08:06:40;5.30;;;2.22;;
79706;SDS011;69200;53.612;-2.416;2023-12-07T08:09:07;6.03;;;2.80;;
79706;SDS011;69200;53.612;-2.416;2023-12-07T08:11:33;8.07;;;3.90;;
79706;SDS011;69200;53.612;-2.416;2023-12-07T08:13:58;9.05;;;3.42;;
79706;SDS011;69200;53.612;-2.416;2023-12-07T08:16:23;11.45;;;4.43;;
79706;SDS011;69200;53.612;-2.416;2023-12-07T08:18:49;5.72;;;2.75;;
79706;SDS011;69200;53.612;-2.416;2023-12-07T08:21:20;5.57;;;2.55;;
79706;SDS011;69200;53.612;-2.416;2023-12-07T08:23:47;6.70;;;2.97;;
79706;SDS011;69200;53.612;-2.416;2023-12-07T08:26:12;6.90;;;2.50;;
79706;SDS011;69200;53.612;-2.416;2023-12-07T08:28:39;5.97;;;2.00;;
79706;SDS011;69200;53.612;-2.416;2023-12-07T08:31:05;7.75;;;2.95;;
79706;SDS011;69200;53.612;-2.416;2023-12-07T08:33:31;10.02;;;3.05;;
79706;SDS011;69200;53.612;-2.416;2023-12-07T08:35:59;7.05;;;2.75;;
79706;SDS011;69200;53.612;-2.416;2023-12-07T08:38:25;6.10;;;2.58;;
79706;SDS011;69200;53.612;-2.416;2023-12-07T08:40:50;7.93;;;3.00;;
79706;SDS011;69200;53.612;-2.416;2023-12-07T08:43:16;4.25;;;2.28;;
79706;SDS011;69200;53.612;-2.416;2023-12-07T08:45:41;6.95;;;2.50;;
79706;SDS011;69200;53.612;-2.416;2023-12-07T08:48:07;3.15;;;1.63;;
79706;SDS011;69200;53.612;-2.416;2023-12-07T08:50:32;5.32;;;2.08;;
79706;SDS011;69200;53.612;-2.416;2023-12-07T08:52:57;5.97;;;2.38;;
79706;SDS011;69200;53.612;-2.416;2023-12-07T08:55:23;4.28;;;1.80;;
79706;SDS011;69200;53.612;-2.416;2023-12-07T08:57:48;5.03;;;2.17;;
79706;SDS011;69200;53.612;-2.416;2023-12-07T09:00:14;4.10;;;1.95;;
79706;SDS011;69200;53.612;-2.416;2023-12-07T09:02:39;5.07;;;1.15;;
79706;SDS011;69200;53.612;-2.416;2023-12-07T09:05:05;4.25;;;1.90;;
79706;SDS011;69200;53.612;-2.416;2023-12-07T09:07:30;4.95;;;1.60;;
79706;SDS011;69200;53.612;-2.416;2023-12-07T09:09:56;5.13;;;1.67;;
79706;SDS011;69200;53.612;-2.416;2023-12-07T09:12:21;3.92;;;1.48;;
79706;SDS011;69200;53.612;-2.416;2023-12-07T09:14:46;4.63;;;1.85;;
79706;SDS011;69200;53.612;-2.416;2023-12-07T09:17:12;4.05;;;1.80;;
79706;SDS011;69200;53.612;-2.416;2023-12-07T09:19:37;3.33;;;1.27;;
79706;SDS011;69200;53.612;-2.416;2023-12-07T09:22:03;2.35;;;0.88;;
79706;SDS011;69200;53.612;-2.416;2023-12-07T09:24:28;5.38;;;1.85;;
79706;SDS011;69200;53.612;-2.416;2023-12-07T09:26:53;5.10;;;1.40;;
79706;SDS011;69200;53.612;-2.416;2023-12-07T09:29:19;4.43;;;1.80;;
79706;SDS011;69200;53.612;-2.416;2023-12-07T09:31:44;4.45;;;1.42;;
79706;SDS011;69200;53.612;-2.416;2023-12-07T09:34:09;3.53;;;1.75;;
79706;SDS011;69200;53.612;-2.416;2023-12-07T09:36:37;3.13;;;1.40;;
79706;SDS011;69200;53.612;-2.416;2023-12-07T09:39:02;4.65;;;1.90;;
79706;SDS011;69200;53.612;-2.416;2023-12-07T09:41:28;3.97;;;1.60;;
79706;SDS011;69200;53.612;-2.416;2023-12-07T09:43:54;3.40;;;1.50;;
79706;SDS011;69200;53.612;-2.416;2023-12-07T09:46:20;3.35;;;1.13;;
79706;SDS011;69200;53.612;-2.416;2023-12-07T09:48:45;2.35;;;1.00;;
79706;SDS011;69200;53.612;-2.416;2023-12-07T09:51:14;3.30;;;1.00;;
79706;SDS011;69200;53.612;-2.416;2023-12-07T09:53:40;3.17;;;1.27;;
79706;SDS011;69200;53.612;-2.416;2023-12-07T09:56:07;6.47;;;1.30;;
79706;SDS011;69200;53.612;-2.416;2023-12-07T09:58:33;5.78;;;1.90;;
79706;SDS011;69200;53.612;-2.416;2023-12-07T10:00:58;3.10;;;1.10;;
79706;SDS011;69200;53.612;-2.416;2023-12-07T10:03:24;3.35;;;1.42;;
79706;SDS011;69200;53.612;-2.416;2023-12-07T10:05:56;5.30;;;1.50;;
79706;SDS011;69200;53.612;-2.416;2023-12-07T10:08:26;3.78;;;1.50;;
79706;SDS011;69200;53.612;-2.416;2023-12-07T10:13:32;3.97;;;1.40;;
79706;SDS011;69200;53.612;-2.416;2023-12-07T10:16:06;3.28;;;1.20;;
79706;SDS011;69200;53.612;-2.416;2023-12-07T10:18:36;4.60;;;1.60;;
79706;SDS011;69200;53.612;-2.416;2023-12-07T10:21:02;4.88;;;1.55;;
79706;SDS011;69200;53.612;-2.416;2023-12-07T10:23:28;3.72;;;1.67;;
79706;SDS011;69200;53.612;-2.416;2023-12-07T10:25:57;4.30;;;1.50;;
79706;SDS011;69200;53.612;-2.416;2023-12-07T10:28:23;3.90;;;1.70;;
79706;SDS011;69200;53.612;-2.416;2023-12-07T10:30:48;3.40;;;1.48;;
79706;SDS011;69200;53.612;-2.416;2023-12-07T10:33:15;3.17;;;1.50;;
79706;SDS011;69200;53.612;-2.416;2023-12-07T10:35:43;2.67;;;0.80;;
79706;SDS011;69200;53.612;-2.416;2023-12-07T10:38:09;4.20;;;1.00;;
79706;SDS011;69200;53.612;-2.416;2023-12-07T10:40:35;2.47;;;1.05;;
79706;SDS011;69200;53.612;-2.416;2023-12-07T10:43:01;5.00;;;1.80;;
79706;SDS011;69200;53.612;-2.416;2023-12-07T10:45:30;4.40;;;1.40;;
79706;SDS011;69200;53.612;-2.416;2023-12-07T10:47:58;3.17;;;1.30;;
79706;SDS011;69200;53.612;-2.416;2023-12-07T10:50:27;3.47;;;1.40;;
79706;SDS011;69200;53.612;-2.416;2023-12-07T10:52:57;5.07;;;2.22;;
79706;SDS011;69200;53.612;-2.416;2023-12-07T10:55:29;5.93;;;1.88;;
79706;SDS011;69200;53.612;-2.416;2023-12-07T10:57:57;3.63;;;1.38;;
79706;SDS011;69200;53.612;-2.416;2023-12-07T11:00:24;3.30;;;1.17;;
79706;SDS011;69200;53.612;-2.416;2023-12-07T11:02:53;3.58;;;1.45;;
79706;SDS011;69200;53.612;-2.416;2023-12-07T11:05:18;3.20;;;1.27;;
79706;SDS011;69200;53.612;-2.416;2023-12-07T11:07:50;5.10;;;1.40;;
79706;SDS011;69200;53.612;-2.416;2023-12-07T11:10:27;4.68;;;2.05;;
79706;SDS011;69200;53.612;-2.416;2023-12-07T11:13:13;3.63;;;1.45;;
79706;SDS011;69200;53.612;-2.416;2023-12-07T11:15:45;6.53;;;1.90;;
79706;SDS011;69200;53.612;-2.416;2023-12-07T11:18:11;5.40;;;2.15;;
79706;SDS011;69200;53.612;-2.416;2023-12-07T11:20:39;5.78;;;2.33;;
79706;SDS011;69200;53.612;-2.416;2023-12-07T11:23:07;3.92;;;1.58;;
79706;SDS011;69200;53.612;-2.416;2023-12-07T11:25:33;3.58;;;1.30;;
79706;SDS011;69200;53.612;-2.416;2023-12-07T11:28:02;6.05;;;1.52;;
79706;SDS011;69200;53.612;-2.416;2023-12-07T11:32:59;3.20;;;1.30;;
79706;SDS011;69200;53.612;-2.416;2023-12-07T11:35:25;5.68;;;1.67;;
79706;SDS011;69200;53.612;-2.416;2023-12-07T11:40:31;1.90;;;0.75;;
79706;SDS011;69200;53.612;-2.416;2023-12-07T11:42:58;3.72;;;1.40;;
79706;SDS011;69200;53.612;-2.416;2023-12-07T11:48:08;2.97;;;1.17;;
79706;SDS011;69200;53.612;-2.416;2023-12-07T11:53:24;3.22;;;1.13;;
79706;SDS011;69200;53.612;-2.416;2023-12-07T11:55:51;2.67;;;0.88;;
79706;SDS011;69200;53.612;-2.416;2023-12-07T11:58:17;1.88;;;0.68;;
79706;SDS011;69200;53.612;-2.416;2023-12-07T12:00:45;2.70;;;0.73;;
79706;SDS011;69200;53.612;-2.416;2023-12-07T12:03:13;1.75;;;0.70;;
79706;SDS011;69200;53.612;-2.416;2023-12-07T12:05:40;3.08;;;0.98;;
79706;SDS011;69200;53.612;-2.416;2023-12-07T12:08:06;2.58;;;0.70;;
79706;SDS011;69200;53.612;-2.416;2023-12-07T12:10:32;2.70;;;0.70;;
79706;SDS011;69200;53.612;-2.416;2023-12-07T12:13:00;2.90;;;1.08;;
79706;SDS011;69200;53.612;-2.416;2023-12-07T12:17:55;3.95;;;0.95;;
79706;SDS011;69200;53.612;-2.416;2023-12-07T12:20:21;2.92;;;1.20;;
79706;SDS011;69200;53.612;-2.416;2023-12-07T12:22:47;3.63;;;1.17;;
79706;SDS011;69200;53.612;-2.416;2023-12-07T12:25:12;2.75;;;0.93;;
79706;SDS011;69200;53.612;-2.416;2023-12-07T12:27:38;3.08;;;0.90;;
79706;SDS011;69200;53.612;-2.416;2023-12-07T12:30:05;5.13;;;1.40;;
79706;SDS011;69200;53.612;-2.416;2023-12-07T12:32:44;3.67;;;1.00;;
79706;SDS011;69200;53.612;-2.416;2023-12-07T12:35:10;2.78;;;0.88;;
79706;SDS011;69200;53.612;-2.416;2023-12-07T12:37:37;4.50;;;1.48;;
79706;SDS011;69200;53.612;-2.416;2023-12-07T12:40:05;2.97;;;1.10;;
79706;SDS011;69200;53.612;-2.416;2023-12-07T12:42:31;6.88;;;1.30;;
79706;SDS011;69200;53.612;-2.416;2023-12-07T12:44:57;3.85;;;0.95;;
79706;SDS011;69200;53.612;-2.416;2023-12-07T12:47:22;4.93;;;1.60;;
79706;SDS011;69200;53.612;-2.416;2023-12-07T12:49:48;3.13;;;1.08;;
79706;SDS011;69200;53.612;-2.416;2023-12-07T12:52:16;5.95;;;1.60;;
79706;SDS011;69200;53.612;-2.416;2023-12-07T12:54:42;4.88;;;1.65;;
79706;SDS011;69200;53.612;-2.416;2023-12-07T12:57:09;4.22;;;2.00;;
79706;SDS011;69200;53.612;-2.416;2023-12-07T12:59:34;3.05;;;1.00;;
79706;SDS011;69200;53.612;-2.416;2023-12-07T13:02:00;6.15;;;1.80;;
79706;SDS011;69200;53.612;-2.416;2023-12-07T13:04:25;6.40;;;1.63;;
79706;SDS011;69200;53.612;-2.416;2023-12-07T13:06:51;4.82;;;1.20;;
79706;SDS011;69200;53.612;-2.416;2023-12-07T13:09:16;5.30;;;1.65;;
79706;SDS011;69200;53.612;-2.416;2023-12-07T13:11:42;7.45;;;2.20;;
79706;SDS011;69200;53.612;-2.416;2023-12-07T13:14:07;6.05;;;1.77;;
79706;SDS011;69200;53.612;-2.416;2023-12-07T13:16:32;6.88;;;2.28;;
79706;SDS011;69200;53.612;-2.416;2023-12-07T13:18:58;5.47;;;2.17;;
79706;SDS011;69200;53.612;-2.416;2023-12-07T13:21:23;6.25;;;2.10;;
79706;SDS011;69200;53.612;-2.416;2023-12-07T13:23:49;8.52;;;2.58;;
79706;SDS011;69200;53.612;-2.416;2023-12-07T13:26:14;8.95;;;2.25;;
79706;SDS011;69200;53.612;-2.416;2023-12-07T13:28:40;10.10;;;2.58;;
79706;SDS011;69200;53.612;-2.416;2023-12-07T13:31:05;5.78;;;2.22;;
79706;SDS011;69200;53.612;-2.416;2023-12-07T13:33:31;6.75;;;2.63;;
79706;SDS011;69200;53.612;-2.416;2023-12-07T13:35:56;9.23;;;2.55;;
79706;SDS011;69200;53.612;-2.416;2023-12-07T13:38:22;8.48;;;3.17;;
79706;SDS011;69200;53.612;-2.416;2023-12-07T13:40:48;8.43;;;2.80;;
79706;SDS011;69200;53.612;-2.416;2023-12-07T13:43:14;6.00;;;2.70;;
79706;SDS011;69200;53.612;-2.416;2023-12-07T13:45:39;11.20;;;1.95;;
79706;SDS011;69200;53.612;-2.416;2023-12-07T13:48:05;8.80;;;3.35;;
79706;SDS011;69200;53.612;-2.416;2023-12-07T13:50:31;4.35;;;1.85;;
79706;SDS011;69200;53.612;-2.416;2023-12-07T13:52:56;6.10;;;2.17;;
79706;SDS011;69200;53.612;-2.416;2023-12-07T13:55:22;9.15;;;1.95;;
79706;SDS011;69200;53.612;-2.416;2023-12-07T13:57:49;6.00;;;2.25;;
79706;SDS011;69200;53.612;-2.416;2023-12-07T14:00:17;8.15;;;2.13;;
79706;SDS011;69200;53.612;-2.416;2023-12-07T14:02:45;4.75;;;1.70;;
79706;SDS011;69200;53.612;-2.416;2023-12-07T14:05:10;9.85;;;8.30;;
79706;SDS011;69200;53.612;-2.416;2023-12-07T14:07:36;7.75;;;2.13;;
79706;SDS011;69200;53.612;-2.416;2023-12-07T14:10:01;4.82;;;2.35;;
79706;SDS011;69200;53.612;-2.416;2023-12-07T14:12:27;4.43;;;1.95;;
79706;SDS011;69200;53.612;-2.416;2023-12-07T14:14:52;6.55;;;2.22;;
79706;SDS011;69200;53.612;-2.416;2023-12-07T14:17:20;5.95;;;2.75;;
79706;SDS011;69200;53.612;-2.416;2023-12-07T14:19:47;5.53;;;2.05;;
79706;SDS011;69200;53.612;-2.416;2023-12-07T14:22:13;4.38;;;1.83;;
79706;SDS011;69200;53.612;-2.416;2023-12-07T14:24:39;7.25;;;2.25;;
79706;SDS011;69200;53.612;-2.416;2023-12-07T14:27:05;7.25;;;2.20;;
79706;SDS011;69200;53.612;-2.416;2023-12-07T14:29:31;3.22;;;1.42;;
79706;SDS011;69200;53.612;-2.416;2023-12-07T14:31:58;7.15;;;2.22;;
79706;SDS011;69200;53.612;-2.416;2023-12-07T14:34:23;7.75;;;2.05;;
79706;SDS011;69200;53.612;-2.416;2023-12-07T14:36:50;4.68;;;1.77;;
79706;SDS011;69200;53.612;-2.416;2023-12-07T14:39:16;5.20;;;2.00;;
79706;SDS011;69200;53.612;-2.416;2023-12-07T14:41:45;8.15;;;2.78;;